sensor_id;sensor_type;location;lat;lon;timestamp;temperature;humidity
36690;DHT22;22676;51.120;3.702;2022-12-24T00:00:17;23.00;52.50
36690;DHT22;22676;51.120;3.702;2022-12-24T00:02:43;23.10;52.60
36690;DHT22;22676;51.120;3.702;2022-12-24T00:05:08;23.00;52.70
36690;DHT22;22676;51.120;3.702;2022-12-24T00:07:35;23.10;52.90
36690;DHT22;22676;51.120;3.702;2022-12-24T00:10:00;23.00;52.60
36690;DHT22;22676;51.120;3.702;2022-12-24T00:12:26;23.00;52.50
36690;DHT22;22676;51.120;3.702;2022-12-24T00:14:51;23.00;52.50
36690;DHT22;22676;51.120;3.702;2022-12-24T00:17:17;23.10;52.70
36690;DHT22;22676;51.120;3.702;2022-12-24T00:19:43;23.10;52.60
36690;DHT22;22676;51.120;3.702;2022-12-24T00:22:08;23.00;52.70
36690;DHT22;22676;51.120;3.702;2022-12-24T00:24:34;23.00;52.70
36690;DHT22;22676;51.120;3.702;2022-12-24T00:26:59;23.00;52.60
36690;DHT22;22676;51.120;3.702;2022-12-24T00:29:25;23.00;52.70
36690;DHT22;22676;51.120;3.702;2022-12-24T00:31:50;22.90;52.00
36690;DHT22;22676;51.120;3.702;2022-12-24T00:34:16;22.80;52.50
36690;DHT22;22676;51.120;3.702;2022-12-24T00:36:41;22.80;52.60
36690;DHT22;22676;51.120;3.702;2022-12-24T00:39:07;22.80;52.60
36690;DHT22;22676;51.120;3.702;2022-12-24T00:41:32;22.80;52.40
36690;DHT22;22676;51.120;3.702;2022-12-24T00:44:02;22.90;52.50
36690;DHT22;22676;51.120;3.702;2022-12-24T00:46:30;22.90;52.40
36690;DHT22;22676;51.120;3.702;2022-12-24T00:48:56;23.00;52.50
36690;DHT22;22676;51.120;3.702;2022-12-24T00:51:21;23.00;52.40
36690;DHT22;22676;51.120;3.702;2022-12-24T00:53:47;23.00;52.40
36690;DHT22;22676;51.120;3.702;2022-12-24T00:56:13;23.00;52.30
36690;DHT22;22676;51.120;3.702;2022-12-24T00:58:38;23.00;52.50
36690;DHT22;22676;51.120;3.702;2022-12-24T01:01:04;23.00;52.50
36690;DHT22;22676;51.120;3.702;2022-12-24T01:03:30;23.00;52.40
36690;DHT22;22676;51.120;3.702;2022-12-24T01:06:02;23.00;52.40
36690;DHT22;22676;51.120;3.702;2022-12-24T01:08:28;22.90;52.40
36690;DHT22;22676;51.120;3.702;2022-12-24T01:10:53;23.00;52.40
36690;DHT22;22676;51.120;3.702;2022-12-24T01:13:19;22.90;52.50
36690;DHT22;22676;51.120;3.702;2022-12-24T01:15:44;23.00;52.40
36690;DHT22;22676;51.120;3.702;2022-12-24T01:18:10;23.00;52.30
36690;DHT22;22676;51.120;3.702;2022-12-24T01:20:35;23.00;52.30
36690;DHT22;22676;51.120;3.702;2022-12-24T01:23:01;23.00;52.50
36690;DHT22;22676;51.120;3.702;2022-12-24T01:25:26;23.00;52.10
36690;DHT22;22676;51.120;3.702;2022-12-24T01:27:52;23.00;52.30
36690;DHT22;22676;51.120;3.702;2022-12-24T01:30:18;23.00;52.30
36690;DHT22;22676;51.120;3.702;2022-12-24T01:32:43;22.90;51.60
36690;DHT22;22676;51.120;3.702;2022-12-24T01:35:09;22.70;52.20
36690;DHT22;22676;51.120;3.702;2022-12-24T01:37:35;22.70;52.50
36690;DHT22;22676;51.120;3.702;2022-12-24T01:40:00;22.80;52.30
36690;DHT22;22676;51.120;3.702;2022-12-24T01:42:46;22.80;52.30
36690;DHT22;22676;51.120;3.702;2022-12-24T01:45:34;22.90;52.20
36690;DHT22;22676;51.120;3.702;2022-12-24T01:48:04;22.90;52.20
36690;DHT22;22676;51.120;3.702;2022-12-24T01:50:29;22.90;52.20
36690;DHT22;22676;51.120;3.702;2022-12-24T01:52:55;22.90;52.00
36690;DHT22;22676;51.120;3.702;2022-12-24T01:55:21;22.90;52.20
36690;DHT22;22676;51.120;3.702;2022-12-24T01:57:50;22.90;52.40
36690;DHT22;22676;51.120;3.702;2022-12-24T02:00:16;22.90;52.30
36690;DHT22;22676;51.120;3.702;2022-12-24T02:02:43;22.90;52.30
36690;DHT22;22676;51.120;3.702;2022-12-24T02:07:36;22.90;52.00
36690;DHT22;22676;51.120;3.702;2022-12-24T02:10:02;22.90;52.30
36690;DHT22;22676;51.120;3.702;2022-12-24T02:12:28;22.90;52.20
36690;DHT22;22676;51.120;3.702;2022-12-24T02:14:54;22.90;52.10
36690;DHT22;22676;51.120;3.702;2022-12-24T02:27:45;22.90;52.20
36690;DHT22;22676;51.120;3.702;2022-12-24T02:30:20;22.90;52.20
36690;DHT22;22676;51.120;3.702;2022-12-24T02:35:33;22.70;51.40
36690;DHT22;22676;51.120;3.702;2022-12-24T02:38:02;22.60;52.00
36690;DHT22;22676;51.120;3.702;2022-12-24T02:40:35;22.70;51.90
36690;DHT22;22676;51.120;3.702;2022-12-24T02:43:02;22.80;51.90
36690;DHT22;22676;51.120;3.702;2022-12-24T02:45:31;22.80;51.80
36690;DHT22;22676;51.120;3.702;2022-12-24T02:47:57;22.70;52.00
36690;DHT22;22676;51.120;3.702;2022-12-24T02:50:23;22.70;52.00
36690;DHT22;22676;51.120;3.702;2022-12-24T02:52:48;22.70;52.00
36690;DHT22;22676;51.120;3.702;2022-12-24T03:00:17;22.70;51.90
36690;DHT22;22676;51.120;3.702;2022-12-24T03:08:14;22.70;51.90
36690;DHT22;22676;51.120;3.702;2022-12-24T03:10:56;22.70;52.00
36690;DHT22;22676;51.120;3.702;2022-12-24T03:13:25;22.70;52.60
36690;DHT22;22676;51.120;3.702;2022-12-24T03:15:51;22.70;51.80
36690;DHT22;22676;51.120;3.702;2022-12-24T03:18:18;22.80;51.70
36690;DHT22;22676;51.120;3.702;2022-12-24T03:20:46;22.80;51.70
36690;DHT22;22676;51.120;3.702;2022-12-24T03:23:13;22.70;51.70
36690;DHT22;22676;51.120;3.702;2022-12-24T03:25:40;22.70;51.70
36690;DHT22;22676;51.120;3.702;2022-12-24T03:28:06;22.70;51.30
36690;DHT22;22676;51.120;3.702;2022-12-24T03:30:33;22.60;51.50
36690;DHT22;22676;51.120;3.702;2022-12-24T03:32:58;22.50;51.20
36690;DHT22;22676;51.120;3.702;2022-12-24T03:35:24;22.30;51.50
36690;DHT22;22676;51.120;3.702;2022-12-24T03:37:49;22.30;52.30
36690;DHT22;22676;51.120;3.702;2022-12-24T03:40:15;22.30;52.10
36690;DHT22;22676;51.120;3.702;2022-12-24T03:42:41;22.30;52.10
36690;DHT22;22676;51.120;3.702;2022-12-24T03:45:06;22.30;52.00
36690;DHT22;22676;51.120;3.702;2022-12-24T03:47:32;22.20;51.90
36690;DHT22;22676;51.120;3.702;2022-12-24T03:49:58;22.20;52.00
36690;DHT22;22676;51.120;3.702;2022-12-24T03:52:23;22.20;52.10
36690;DHT22;22676;51.120;3.702;2022-12-24T03:54:49;22.20;52.00
36690;DHT22;22676;51.120;3.702;2022-12-24T03:57:14;22.20;52.50
36690;DHT22;22676;51.120;3.702;2022-12-24T03:59:40;22.20;52.00
36690;DHT22;22676;51.120;3.702;2022-12-24T04:02:05;22.20;52.00
36690;DHT22;22676;51.120;3.702;2022-12-24T04:04:31;22.20;52.00
36690;DHT22;22676;51.120;3.702;2022-12-24T04:06:57;22.20;52.00
36690;DHT22;22676;51.120;3.702;2022-12-24T04:09:23;22.20;51.80
36690;DHT22;22676;51.120;3.702;2022-12-24T04:11:49;22.20;51.80
36690;DHT22;22676;51.120;3.702;2022-12-24T04:14:14;22.20;51.90
36690;DHT22;22676;51.120;3.702;2022-12-24T04:16:40;22.20;51.80
36690;DHT22;22676;51.120;3.702;2022-12-24T04:19:05;22.20;51.70
36690;DHT22;22676;51.120;3.702;2022-12-24T04:21:31;22.20;51.40
36690;DHT22;22676;51.120;3.702;2022-12-24T04:23:56;22.20;51.60
36690;DHT22;22676;51.120;3.702;2022-12-24T04:26:22;22.20;51.60
36690;DHT22;22676;51.120;3.702;2022-12-24T04:28:47;22.30;51.50
36690;DHT22;22676;51.120;3.702;2022-12-24T04:31:14;22.20;50.90
36690;DHT22;22676;51.120;3.702;2022-12-24T04:33:39;22.10;51.10
36690;DHT22;22676;51.120;3.702;2022-12-24T04:36:06;22.00;51.50
36690;DHT22;22676;51.120;3.702;2022-12-24T04:38:32;22.00;51.80
36690;DHT22;22676;51.120;3.702;2022-12-24T04:41:01;22.10;51.40
36690;DHT22;22676;51.120;3.702;2022-12-24T04:43:27;22.20;51.20
36690;DHT22;22676;51.120;3.702;2022-12-24T04:45:53;22.20;51.10
36690;DHT22;22676;51.120;3.702;2022-12-24T04:48:18;22.30;51.00
36690;DHT22;22676;51.120;3.702;2022-12-24T04:50:44;22.20;51.00
36690;DHT22;22676;51.120;3.702;2022-12-24T04:53:09;22.20;51.00
36690;DHT22;22676;51.120;3.702;2022-12-24T04:55:35;22.20;51.60
36690;DHT22;22676;51.120;3.702;2022-12-24T04:58:00;22.20;51.00
36690;DHT22;22676;51.120;3.702;2022-12-24T05:00:26;22.20;50.90
36690;DHT22;22676;51.120;3.702;2022-12-24T05:02:52;22.20;50.90
36690;DHT22;22676;51.120;3.702;2022-12-24T05:05:17;22.20;50.90
36690;DHT22;22676;51.120;3.702;2022-12-24T05:07:43;22.20;50.90
36690;DHT22;22676;51.120;3.702;2022-12-24T05:10:08;22.20;50.90
36690;DHT22;22676;51.120;3.702;2022-12-24T05:12:35;22.20;50.90
36690;DHT22;22676;51.120;3.702;2022-12-24T05:15:00;22.30;51.00
36690;DHT22;22676;51.120;3.702;2022-12-24T05:17:26;22.30;50.90
36690;DHT22;22676;51.120;3.702;2022-12-24T05:19:52;22.30;50.80
36690;DHT22;22676;51.120;3.702;2022-12-24T05:22:17;22.30;50.80
36690;DHT22;22676;51.120;3.702;2022-12-24T05:25:01;22.30;50.80
36690;DHT22;22676;51.120;3.702;2022-12-24T05:27:46;22.30;50.70
36690;DHT22;22676;51.120;3.702;2022-12-24T05:30:11;22.30;50.70
36690;DHT22;22676;51.120;3.702;2022-12-24T05:32:37;22.00;50.30
36690;DHT22;22676;51.120;3.702;2022-12-24T05:35:02;21.90;51.00
36690;DHT22;22676;51.120;3.702;2022-12-24T05:37:28;21.90;51.50
36690;DHT22;22676;51.120;3.702;2022-12-24T05:39:53;22.00;51.30
36690;DHT22;22676;51.120;3.702;2022-12-24T05:42:19;22.10;50.90
36690;DHT22;22676;51.120;3.702;2022-12-24T05:44:44;22.10;50.80
36690;DHT22;22676;51.120;3.702;2022-12-24T05:47:10;22.10;50.70
36690;DHT22;22676;51.120;3.702;2022-12-24T05:49:35;22.10;50.70
36690;DHT22;22676;51.120;3.702;2022-12-24T05:52:01;22.20;50.70
36690;DHT22;22676;51.120;3.702;2022-12-24T05:54:26;22.10;50.60
36690;DHT22;22676;51.120;3.702;2022-12-24T05:56:52;22.20;50.60
36690;DHT22;22676;51.120;3.702;2022-12-24T05:59:17;22.20;50.60
36690;DHT22;22676;51.120;3.702;2022-12-24T06:01:43;22.20;50.60
36690;DHT22;22676;51.120;3.702;2022-12-24T06:04:11;22.20;50.60
36690;DHT22;22676;51.120;3.702;2022-12-24T06:06:37;22.10;50.60
36690;DHT22;22676;51.120;3.702;2022-12-24T06:09:02;22.20;50.70
36690;DHT22;22676;51.120;3.702;2022-12-24T06:11:28;22.40;50.30
36690;DHT22;22676;51.120;3.702;2022-12-24T06:13:54;22.70;49.80
36690;DHT22;22676;51.120;3.702;2022-12-24T06:16:19;22.90;49.30
36690;DHT22;22676;51.120;3.702;2022-12-24T06:18:46;23.10;48.90
36690;DHT22;22676;51.120;3.702;2022-12-24T06:21:11;23.20;48.60
36690;DHT22;22676;51.120;3.702;2022-12-24T06:23:38;23.20;48.40
36690;DHT22;22676;51.120;3.702;2022-12-24T06:26:04;23.30;48.30
36690;DHT22;22676;51.120;3.702;2022-12-24T06:28:31;23.40;48.20
36690;DHT22;22676;51.120;3.702;2022-12-24T06:30:56;23.40;47.50
36690;DHT22;22676;51.120;3.702;2022-12-24T06:33:22;23.40;47.00
36690;DHT22;22676;51.120;3.702;2022-12-24T06:35:48;23.50;46.90
36690;DHT22;22676;51.120;3.702;2022-12-24T06:38:14;23.60;47.30
36690;DHT22;22676;51.120;3.702;2022-12-24T06:40:40;23.70;47.30
36690;DHT22;22676;51.120;3.702;2022-12-24T06:43:06;23.80;47.10
36690;DHT22;22676;51.120;3.702;2022-12-24T06:45:32;23.80;46.90
36690;DHT22;22676;51.120;3.702;2022-12-24T06:47:58;23.90;46.90
36690;DHT22;22676;51.120;3.702;2022-12-24T06:50:23;24.00;46.80
36690;DHT22;22676;51.120;3.702;2022-12-24T06:52:49;24.00;46.70
36690;DHT22;22676;51.120;3.702;2022-12-24T06:55:14;24.10;46.70
36690;DHT22;22676;51.120;3.702;2022-12-24T06:57:40;24.20;46.70
36690;DHT22;22676;51.120;3.702;2022-12-24T07:00:06;24.30;46.60
36690;DHT22;22676;51.120;3.702;2022-12-24T07:02:32;24.30;46.40
36690;DHT22;22676;51.120;3.702;2022-12-24T07:04:57;24.40;46.40
36690;DHT22;22676;51.120;3.702;2022-12-24T07:07:23;24.40;46.30
36690;DHT22;22676;51.120;3.702;2022-12-24T07:09:48;24.50;46.30
36690;DHT22;22676;51.120;3.702;2022-12-24T07:12:14;24.50;46.20
36690;DHT22;22676;51.120;3.702;2022-12-24T07:14:39;24.60;46.20
36690;DHT22;22676;51.120;3.702;2022-12-24T07:17:05;24.70;46.10
36690;DHT22;22676;51.120;3.702;2022-12-24T07:19:30;24.70;46.00
36690;DHT22;22676;51.120;3.702;2022-12-24T07:21:56;24.80;45.90
36690;DHT22;22676;51.120;3.702;2022-12-24T07:24:21;24.80;45.90
36690;DHT22;22676;51.120;3.702;2022-12-24T07:26:47;24.40;46.40
36690;DHT22;22676;51.120;3.702;2022-12-24T07:29:12;24.50;46.60
36690;DHT22;22676;51.120;3.702;2022-12-24T07:31:38;24.60;45.80
36690;DHT22;22676;51.120;3.702;2022-12-24T07:34:03;24.60;45.60
36690;DHT22;22676;51.120;3.702;2022-12-24T07:36:29;24.70;45.60
36690;DHT22;22676;51.120;3.702;2022-12-24T07:38:55;24.70;46.00
36690;DHT22;22676;51.120;3.702;2022-12-24T07:41:21;24.80;46.20
36690;DHT22;22676;51.120;3.702;2022-12-24T07:43:46;24.90;46.00
36690;DHT22;22676;51.120;3.702;2022-12-24T07:46:12;25.00;45.90
36690;DHT22;22676;51.120;3.702;2022-12-24T07:48:38;25.00;45.80
36690;DHT22;22676;51.120;3.702;2022-12-24T07:51:03;25.10;45.80
36690;DHT22;22676;51.120;3.702;2022-12-24T07:53:29;25.10;45.70
36690;DHT22;22676;51.120;3.702;2022-12-24T07:55:55;25.10;45.60
36690;DHT22;22676;51.120;3.702;2022-12-24T07:58:20;25.20;45.60
36690;DHT22;22676;51.120;3.702;2022-12-24T08:00:46;25.20;45.50
36690;DHT22;22676;51.120;3.702;2022-12-24T08:03:19;25.30;45.60
36690;DHT22;22676;51.120;3.702;2022-12-24T08:05:45;25.40;45.30
36690;DHT22;22676;51.120;3.702;2022-12-24T08:08:11;25.40;45.90
36690;DHT22;22676;51.120;3.702;2022-12-24T08:10:40;25.60;45.40
36690;DHT22;22676;51.120;3.702;2022-12-24T08:13:05;25.70;45.20
36690;DHT22;22676;51.120;3.702;2022-12-24T08:15:31;25.80;45.10
36690;DHT22;22676;51.120;3.702;2022-12-24T08:17:57;25.90;44.80
36690;DHT22;22676;51.120;3.702;2022-12-24T08:20:22;26.00;44.70
36690;DHT22;22676;51.120;3.702;2022-12-24T08:22:48;26.10;44.90
36690;DHT22;22676;51.120;3.702;2022-12-24T08:25:14;26.30;44.70
36690;DHT22;22676;51.120;3.702;2022-12-24T08:27:39;26.30;44.50
36690;DHT22;22676;51.120;3.702;2022-12-24T08:30:05;26.40;44.50
36690;DHT22;22676;51.120;3.702;2022-12-24T08:32:31;26.30;43.50
36690;DHT22;22676;51.120;3.702;2022-12-24T08:34:56;26.20;43.80
36690;DHT22;22676;51.120;3.702;2022-12-24T08:37:22;26.20;44.50
36690;DHT22;22676;51.120;3.702;2022-12-24T08:39:47;26.30;44.50
36690;DHT22;22676;51.120;3.702;2022-12-24T08:42:13;26.30;44.70
36690;DHT22;22676;51.120;3.702;2022-12-24T08:44:38;26.20;44.70
36690;DHT22;22676;51.120;3.702;2022-12-24T08:47:04;26.10;45.00
36690;DHT22;22676;51.120;3.702;2022-12-24T08:49:29;26.00;45.40
36690;DHT22;22676;51.120;3.702;2022-12-24T08:51:55;25.90;45.60
36690;DHT22;22676;51.120;3.702;2022-12-24T08:54:20;25.80;45.70
36690;DHT22;22676;51.120;3.702;2022-12-24T08:56:47;25.70;46.00
36690;DHT22;22676;51.120;3.702;2022-12-24T08:59:13;25.60;46.30
36690;DHT22;22676;51.120;3.702;2022-12-24T09:01:38;25.50;46.70
36690;DHT22;22676;51.120;3.702;2022-12-24T09:04:04;25.40;46.50
36690;DHT22;22676;51.120;3.702;2022-12-24T09:06:30;25.40;46.50
36690;DHT22;22676;51.120;3.702;2022-12-24T09:08:56;25.30;46.90
36690;DHT22;22676;51.120;3.702;2022-12-24T09:11:21;25.30;46.80
36690;DHT22;22676;51.120;3.702;2022-12-24T09:13:47;25.20;46.90
36690;DHT22;22676;51.120;3.702;2022-12-24T09:16:12;25.20;46.90
36690;DHT22;22676;51.120;3.702;2022-12-24T09:18:38;25.40;46.90
36690;DHT22;22676;51.120;3.702;2022-12-24T09:21:05;25.40;46.80
36690;DHT22;22676;51.120;3.702;2022-12-24T09:23:33;25.40;46.70
36690;DHT22;22676;51.120;3.702;2022-12-24T09:25:59;25.40;46.80
36690;DHT22;22676;51.120;3.702;2022-12-24T09:28:24;25.50;46.60
36690;DHT22;22676;51.120;3.702;2022-12-24T09:30:59;25.50;46.20
36690;DHT22;22676;51.120;3.702;2022-12-24T09:33:26;25.70;45.70
36690;DHT22;22676;51.120;3.702;2022-12-24T09:35:52;25.80;45.20
36690;DHT22;22676;51.120;3.702;2022-12-24T09:38:18;25.70;45.60
36690;DHT22;22676;51.120;3.702;2022-12-24T09:40:43;25.60;45.90
36690;DHT22;22676;51.120;3.702;2022-12-24T09:43:19;25.60;46.40
36690;DHT22;22676;51.120;3.702;2022-12-24T09:45:52;25.40;46.90
36690;DHT22;22676;51.120;3.702;2022-12-24T09:48:21;25.30;47.30
36690;DHT22;22676;51.120;3.702;2022-12-24T09:50:58;25.20;47.50
36690;DHT22;22676;51.120;3.702;2022-12-24T09:53:27;25.00;47.50
36690;DHT22;22676;51.120;3.702;2022-12-24T09:55:57;24.90;47.80
36690;DHT22;22676;51.120;3.702;2022-12-24T09:58:29;24.90;47.70
36690;DHT22;22676;51.120;3.702;2022-12-24T10:00:58;24.70;47.80
36690;DHT22;22676;51.120;3.702;2022-12-24T10:03:23;24.40;48.30
36690;DHT22;22676;51.120;3.702;2022-12-24T10:05:56;24.50;48.20
36690;DHT22;22676;51.120;3.702;2022-12-24T10:08:27;24.50;48.20
36690;DHT22;22676;51.120;3.702;2022-12-24T10:10:54;24.50;48.60
36690;DHT22;22676;51.120;3.702;2022-12-24T10:18:44;24.60;48.60
36690;DHT22;22676;51.120;3.702;2022-12-24T10:21:21;24.70;48.60
36690;DHT22;22676;51.120;3.702;2022-12-24T10:23:54;24.70;49.00
36690;DHT22;22676;51.120;3.702;2022-12-24T10:26:25;24.40;49.60
36690;DHT22;22676;51.120;3.702;2022-12-24T10:28:52;24.30;49.60
36690;DHT22;22676;51.120;3.702;2022-12-24T10:31:22;24.20;49.50
36690;DHT22;22676;51.120;3.702;2022-12-24T10:33:52;24.20;48.80
36690;DHT22;22676;51.120;3.702;2022-12-24T10:36:21;24.20;48.40
36690;DHT22;22676;51.120;3.702;2022-12-24T10:38:48;24.10;49.30
36690;DHT22;22676;51.120;3.702;2022-12-24T10:41:13;23.90;50.30
36690;DHT22;22676;51.120;3.702;2022-12-24T10:43:39;23.90;50.20
36690;DHT22;22676;51.120;3.702;2022-12-24T10:46:15;24.10;50.20
36690;DHT22;22676;51.120;3.702;2022-12-24T10:48:44;24.10;49.90
36690;DHT22;22676;51.120;3.702;2022-12-24T10:51:16;24.20;49.80
36690;DHT22;22676;51.120;3.702;2022-12-24T10:55:03;24.30;49.60
36690;DHT22;22676;51.120;3.702;2022-12-24T10:56:40;24.20;49.60
36690;DHT22;22676;51.120;3.702;2022-12-24T10:59:08;24.20;49.70
36690;DHT22;22676;51.120;3.702;2022-12-24T11:01:46;24.20;49.50
36690;DHT22;22676;51.120;3.702;2022-12-24T11:04:24;24.30;49.90
36690;DHT22;22676;51.120;3.702;2022-12-24T11:07:09;24.20;49.80
36690;DHT22;22676;51.120;3.702;2022-12-24T11:09:38;24.20;50.00
36690;DHT22;22676;51.120;3.702;2022-12-24T11:12:16;24.10;50.00
36690;DHT22;22676;51.120;3.702;2022-12-24T11:14:43;24.00;50.30
36690;DHT22;22676;51.120;3.702;2022-12-24T11:17:16;24.10;50.30
36690;DHT22;22676;51.120;3.702;2022-12-24T11:19:43;24.10;50.20
36690;DHT22;22676;51.120;3.702;2022-12-24T11:22:22;24.20;50.20
36690;DHT22;22676;51.120;3.702;2022-12-24T11:25:16;24.30;49.70
36690;DHT22;22676;51.120;3.702;2022-12-24T11:27:44;24.30;50.00
36690;DHT22;22676;51.120;3.702;2022-12-24T11:32:39;24.20;49.60
36690;DHT22;22676;51.120;3.702;2022-12-24T11:35:06;24.10;49.60
36690;DHT22;22676;51.120;3.702;2022-12-24T11:37:31;24.10;50.00
36690;DHT22;22676;51.120;3.702;2022-12-24T11:39:59;24.00;50.00
36690;DHT22;22676;51.120;3.702;2022-12-24T11:42:32;24.00;49.90
36690;DHT22;22676;51.120;3.702;2022-12-24T11:44:59;24.00;50.00
36690;DHT22;22676;51.120;3.702;2022-12-24T11:47:59;24.00;49.70
36690;DHT22;22676;51.120;3.702;2022-12-24T11:50:28;24.10;49.30
36690;DHT22;22676;51.120;3.702;2022-12-24T11:55:49;24.00;48.80
36690;DHT22;22676;51.120;3.702;2022-12-24T11:58:26;24.00;48.60
36690;DHT22;22676;51.120;3.702;2022-12-24T12:01:28;24.10;49.10
36690;DHT22;22676;51.120;3.702;2022-12-24T12:03:49;24.10;48.10
36690;DHT22;22676;51.120;3.702;2022-12-24T12:06:35;24.20;47.80
36690;DHT22;22676;51.120;3.702;2022-12-24T12:09:04;24.20;47.50
36690;DHT22;22676;51.120;3.702;2022-12-24T12:11:31;24.10;47.80
36690;DHT22;22676;51.120;3.702;2022-12-24T12:13:58;24.20;47.50
36690;DHT22;22676;51.120;3.702;2022-12-24T12:18:52;24.30;47.10
36690;DHT22;22676;51.120;3.702;2022-12-24T12:21:19;24.20;47.30
36690;DHT22;22676;51.120;3.702;2022-12-24T12:23:56;24.20;47.40
36690;DHT22;22676;51.120;3.702;2022-12-24T12:26:24;24.20;47.50
36690;DHT22;22676;51.120;3.702;2022-12-24T12:28:55;24.30;47.40
36690;DHT22;22676;51.120;3.702;2022-12-24T12:33:48;24.10;47.90
36690;DHT22;22676;51.120;3.702;2022-12-24T12:36:17;24.10;47.90
36690;DHT22;22676;51.120;3.702;2022-12-24T12:38:45;24.10;48.00
36690;DHT22;22676;51.120;3.702;2022-12-24T12:41:18;24.10;48.10
36690;DHT22;22676;51.120;3.702;2022-12-24T12:46:21;23.90;48.00
36690;DHT22;22676;51.120;3.702;2022-12-24T12:51:42;24.00;48.00
36690;DHT22;22676;51.120;3.702;2022-12-24T12:54:29;23.90;48.40
36690;DHT22;22676;51.120;3.702;2022-12-24T12:56:57;23.90;48.30
36690;DHT22;22676;51.120;3.702;2022-12-24T13:20:40;23.70;47.70
36690;DHT22;22676;51.120;3.702;2022-12-24T13:25:36;23.70;47.80
36690;DHT22;22676;51.120;3.702;2022-12-24T13:30:47;23.80;47.30
36690;DHT22;22676;51.120;3.702;2022-12-24T13:33:44;23.70;47.30
36690;DHT22;22676;51.120;3.702;2022-12-24T13:35:59;23.70;47.40
36690;DHT22;22676;51.120;3.702;2022-12-24T13:40:54;23.70;47.70
36690;DHT22;22676;51.120;3.702;2022-12-24T13:43:19;23.80;47.20
36690;DHT22;22676;51.120;3.702;2022-12-24T13:45:48;23.80;47.30
36690;DHT22;22676;51.120;3.702;2022-12-24T13:50:44;23.70;47.40
36690;DHT22;22676;51.120;3.702;2022-12-24T13:55:58;23.70;47.20
36690;DHT22;22676;51.120;3.702;2022-12-24T13:58:27;23.70;47.30
36690;DHT22;22676;51.120;3.702;2022-12-24T14:00:53;23.70;47.20
36690;DHT22;22676;51.120;3.702;2022-12-24T14:05:49;23.70;47.10
36690;DHT22;22676;51.120;3.702;2022-12-24T14:10:42;23.80;47.20
36690;DHT22;22676;51.120;3.702;2022-12-24T14:13:49;23.90;47.10
36690;DHT22;22676;51.120;3.702;2022-12-24T14:18:43;23.70;48.00
36690;DHT22;22676;51.120;3.702;2022-12-24T14:21:14;23.70;48.30
36690;DHT22;22676;51.120;3.702;2022-12-24T14:26:33;23.70;48.10
36690;DHT22;22676;51.120;3.702;2022-12-24T14:29:12;23.80;48.10
36690;DHT22;22676;51.120;3.702;2022-12-24T14:31:48;23.70;48.50
36690;DHT22;22676;51.120;3.702;2022-12-24T14:34:14;23.60;48.80
36690;DHT22;22676;51.120;3.702;2022-12-24T14:36:40;23.60;48.90
36690;DHT22;22676;51.120;3.702;2022-12-24T14:39:07;23.60;48.70
36690;DHT22;22676;51.120;3.702;2022-12-24T14:44:20;23.60;48.90
36690;DHT22;22676;51.120;3.702;2022-12-24T14:46:49;23.60;49.00
36690;DHT22;22676;51.120;3.702;2022-12-24T14:49:22;23.60;49.00
36690;DHT22;22676;51.120;3.702;2022-12-24T14:56:40;23.40;49.00
36690;DHT22;22676;51.120;3.702;2022-12-24T14:59:16;23.30;49.30
36690;DHT22;22676;51.120;3.702;2022-12-24T15:01:42;23.40;48.90
36690;DHT22;22676;51.120;3.702;2022-12-24T15:09:01;23.50;48.50
36690;DHT22;22676;51.120;3.702;2022-12-24T15:11:27;23.50;48.60
36690;DHT22;22676;51.120;3.702;2022-12-24T15:13:54;23.40;48.60
36690;DHT22;22676;51.120;3.702;2022-12-24T15:16:22;23.50;48.60
36690;DHT22;22676;51.120;3.702;2022-12-24T15:18:48;23.40;49.00
36690;DHT22;22676;51.120;3.702;2022-12-24T15:21:21;23.40;49.10
36690;DHT22;22676;51.120;3.702;2022-12-24T15:23:49;23.30;49.10
36690;DHT22;22676;51.120;3.702;2022-12-24T15:26:22;23.30;49.30
36690;DHT22;22676;51.120;3.702;2022-12-24T15:28:49;23.30;49.40
36690;DHT22;22676;51.120;3.702;2022-12-24T15:31:15;23.20;49.80
36690;DHT22;22676;51.120;3.702;2022-12-24T15:33:48;23.20;49.70
36690;DHT22;22676;51.120;3.702;2022-12-24T15:36:15;23.30;49.70
36690;DHT22;22676;51.120;3.702;2022-12-24T15:38:42;23.30;49.80
36690;DHT22;22676;51.120;3.702;2022-12-24T15:41:15;23.30;49.80
36690;DHT22;22676;51.120;3.702;2022-12-24T15:43:42;23.30;49.80
36690;DHT22;22676;51.120;3.702;2022-12-24T15:46:08;23.20;50.10
36690;DHT22;22676;51.120;3.702;2022-12-24T15:48:34;23.40;50.70
36690;DHT22;22676;51.120;3.702;2022-12-24T15:51:02;23.50;51.80
36690;DHT22;22676;51.120;3.702;2022-12-24T15:53:29;23.70;53.20
36690;DHT22;22676;51.120;3.702;2022-12-24T15:56:07;24.00;53.20
36690;DHT22;22676;51.120;3.702;2022-12-24T15:58:34;23.90;52.40
36690;DHT22;22676;51.120;3.702;2022-12-24T16:03:38;23.80;51.50
36690;DHT22;22676;51.120;3.702;2022-12-24T16:06:06;23.70;51.30
36690;DHT22;22676;51.120;3.702;2022-12-24T16:08:33;23.50;53.00
36690;DHT22;22676;51.120;3.702;2022-12-24T16:11:12;23.50;52.60
36690;DHT22;22676;51.120;3.702;2022-12-24T16:13:41;23.40;53.30
36690;DHT22;22676;51.120;3.702;2022-12-24T16:16:08;23.50;52.60
36690;DHT22;22676;51.120;3.702;2022-12-24T16:18:51;23.50;52.20
36690;DHT22;22676;51.120;3.702;2022-12-24T16:21:28;23.70;51.90
36690;DHT22;22676;51.120;3.702;2022-12-24T16:23:55;23.70;51.70
36690;DHT22;22676;51.120;3.702;2022-12-24T16:26:21;23.80;51.50
36690;DHT22;22676;51.120;3.702;2022-12-24T16:28:46;23.70;51.80
36690;DHT22;22676;51.120;3.702;2022-12-24T16:31:27;23.60;52.10
36690;DHT22;22676;51.120;3.702;2022-12-24T16:33:53;23.60;52.10
36690;DHT22;22676;51.120;3.702;2022-12-24T16:36:19;23.60;51.70
36690;DHT22;22676;51.120;3.702;2022-12-24T16:38:45;23.70;52.00
36690;DHT22;22676;51.120;3.702;2022-12-24T16:41:29;23.60;51.90
36690;DHT22;22676;51.120;3.702;2022-12-24T16:44:15;23.60;51.80
36690;DHT22;22676;51.120;3.702;2022-12-24T16:46:40;23.40;52.10
36690;DHT22;22676;51.120;3.702;2022-12-24T16:49:08;23.40;52.10
36690;DHT22;22676;51.120;3.702;2022-12-24T16:51:36;23.40;52.40
36690;DHT22;22676;51.120;3.702;2022-12-24T16:54:02;23.40;52.30
36690;DHT22;22676;51.120;3.702;2022-12-24T16:56:27;23.40;52.20
36690;DHT22;22676;51.120;3.702;2022-12-24T16:58:53;23.40;52.30
36690;DHT22;22676;51.120;3.702;2022-12-24T17:01:18;23.30;51.90
36690;DHT22;22676;51.120;3.702;2022-12-24T17:03:44;23.40;51.40
36690;DHT22;22676;51.120;3.702;2022-12-24T17:06:09;23.40;51.20
36690;DHT22;22676;51.120;3.702;2022-12-24T17:08:35;23.30;51.50
36690;DHT22;22676;51.120;3.702;2022-12-24T17:11:01;23.30;51.60
36690;DHT22;22676;51.120;3.702;2022-12-24T17:13:27;23.10;51.70
36690;DHT22;22676;51.120;3.702;2022-12-24T17:15:52;23.20;51.90
36690;DHT22;22676;51.120;3.702;2022-12-24T17:18:18;23.10;51.70
36690;DHT22;22676;51.120;3.702;2022-12-24T17:20:43;23.10;51.90